Time;durP1;ratioP1;P1;durP2;ratioP2;P2;SDS_P1;SDS_P2;PMS_P1;PMS_P2;Temp;Humidity;BMP_temperature;BMP_pressure;BME280_temperature;BME280_humidity;BME280_pressure;Samples;Min_cycle;Max_cycle;Signal;HPM_P1;HPM_P2
2023/12/10 00:01:15;;;;;;;5.53;2.10;;;6.60;90.60;;;;;;4838816;29;20220;-84
2023/12/10 00:03:44;;;;;;;2.20;2.00;;;6.60;90.50;;;;;;4832700;29;20648;-84
2023/12/10 00:06:12;;;;;;;1.80;1.53;;;6.50;90.40;;;;;;4833904;29;20695;-83
2023/12/10 00:08:42;;;;;;;4.57;3.10;;;6.50;90.40;;;;;;4837268;29;20206;-83
2023/12/10 00:11:13;;;;;;;2.13;1.83;;;6.50;90.40;;;;;;4834844;29;20214;-84
2023/12/10 00:13:43;;;;;;;1.53;1.43;;;6.50;90.50;;;;;;4831829;29;20289;-84
2023/12/10 00:16:14;;;;;;;2.53;1.93;;;6.50;90.50;;;;;;4838837;29;20206;-82
2023/12/10 00:18:43;;;;;;;3.37;2.17;;;6.50;90.40;;;;;;4843091;29;20637;-85
2023/12/10 00:26:52;;;;;;;2.40;2.13;;;6.40;90.30;;;;;;4832319;29;20236;-84
2023/12/10 00:29:22;;;;;;;3.97;3.03;;;6.40;90.40;;;;;;4830247;29;20288;-84
2023/12/10 00:32:05;;;;;;;2.23;1.33;;;6.40;90.40;;;;;;4832412;29;20204;-84
2023/12/10 00:34:34;;;;;;;1.90;1.80;;;6.40;90.50;;;;;;4839052;29;20603;-85
2023/12/10 00:37:03;;;;;;;1.47;1.37;;;6.50;90.50;;;;;;4837945;29;20205;-84
2023/12/10 00:39:31;;;;;;;2.97;2.73;;;6.40;90.50;;;;;;4833531;29;20203;-83
2023/12/10 00:44:57;;;;;;;4.27;1.90;;;6.50;90.60;;;;;;4818136;29;20242;-83
2023/12/10 00:50:09;;;;;;;4.47;0.97;;;6.50;90.70;;;;;;4817255;29;20207;-85
2023/12/10 00:52:38;;;;;;;3.87;3.27;;;6.60;90.70;;;;;;4817151;29;20690;-84
2023/12/10 00:55:07;;;;;;;6.13;2.23;;;6.60;90.70;;;;;;4818168;29;20292;-85
2023/12/10 01:00:20;;;;;;;3.53;1.60;;;6.60;90.50;;;;;;4818769;29;20213;-84
2023/12/10 01:02:49;;;;;;;2.67;1.80;;;6.60;90.60;;;;;;4820820;29;20217;-83
2023/12/10 01:05:17;;;;;;;4.93;3.33;;;6.60;90.60;;;;;;4819587;29;20236;-84
2023/12/10 01:07:46;;;;;;;1.03;0.90;;;6.60;90.60;;;;;;4827813;29;20251;-84
2023/12/10 01:10:15;;;;;;;3.47;2.17;;;6.60;90.70;;;;;;4819921;29;20211;-84
2023/12/10 01:12:43;;;;;;;1.77;1.67;;;6.70;90.70;;;;;;4815738;29;20216;-84
2023/12/10 01:15:13;;;;;;;2.10;1.77;;;6.70;90.60;;;;;;4821055;29;20241;-84
2023/12/10 01:17:43;;;;;;;4.33;2.27;;;6.70;90.60;;;;;;4834084;29;20208;-84
2023/12/10 01:20:12;;;;;;;3.73;2.43;;;6.80;90.60;;;;;;4838529;29;20213;-84
2023/12/10 01:22:41;;;;;;;6.60;2.37;;;6.70;90.50;;;;;;4833965;29;20644;-84
2023/12/10 01:25:13;;;;;;;2.67;2.47;;;6.70;90.50;;;;;;4832995;29;20229;-84
2023/12/10 01:27:42;;;;;;;1.90;1.80;;;6.70;90.50;;;;;;4828572;29;20263;-83
2023/12/10 01:30:11;;;;;;;2.23;2.13;;;6.70;90.50;;;;;;4838173;29;20210;-83
2023/12/10 01:32:42;;;;;;;8.43;3.40;;;6.70;90.50;;;;;;4835075;29;20722;-84
2023/12/10 01:35:11;;;;;;;1.93;1.83;;;6.70;90.40;;;;;;4825949;29;20289;-84
2023/12/10 01:37:40;;;;;;;1.27;1.17;;;6.70;90.40;;;;;;4833894;29;20711;-85
2023/12/10 01:40:10;;;;;;;2.30;2.10;;;6.70;90.70;;;;;;4834393;29;20230;-84
2023/12/10 01:42:38;;;;;;;3.67;2.03;;;6.70;90.40;;;;;;4830951;29;20213;-84
2023/12/10 01:45:08;;;;;;;2.57;2.13;;;6.70;90.40;;;;;;4833324;29;20227;-85
2023/12/10 01:47:39;;;;;;;1.80;1.70;;;6.70;90.40;;;;;;4835133;29;20217;-85
2023/12/10 01:50:11;;;;;;;2.00;1.33;;;6.70;90.40;;;;;;4833356;29;20215;-84
2023/12/10 01:52:41;;;;;;;4.27;2.07;;;6.80;90.40;;;;;;4834647;29;20293;-84
2023/12/10 01:55:11;;;;;;;1.53;1.43;;;6.80;90.40;;;;;;4824616;29;20215;-84
2023/12/10 01:57:43;;;;;;;4.30;2.13;;;6.80;90.40;;;;;;4831942;29;20245;-84
2023/12/10 02:00:12;;;;;;;2.17;1.97;;;6.80;90.40;;;;;;4831374;29;20298;-83
2023/12/10 02:02:44;;;;;;;2.17;2.07;;;6.80;90.40;;;;;;4827734;29;20696;-86
2023/12/10 02:05:14;;;;;;;0.97;0.93;;;6.90;90.40;;;;;;4829570;29;20230;-83
2023/12/10 02:07:43;;;;;;;6.37;2.97;;;6.90;90.40;;;;;;4829263;29;20243;-85
2023/12/10 02:10:12;;;;;;;1.53;1.43;;;6.90;90.30;;;;;;4834388;29;20215;-85
2023/12/10 02:12:41;;;;;;;4.10;1.87;;;6.90;90.30;;;;;;4834009;29;20217;-84
2023/12/10 02:15:15;;;;;;;3.63;1.70;;;6.90;90.20;;;;;;4828543;29;20222;-83
2023/12/10 02:17:44;;;;;;;2.17;1.97;;;6.90;90.10;;;;;;4833186;29;20233;-82
2023/12/10 02:20:15;;;;;;;3.60;1.33;;;6.90;90.10;;;;;;4831562;29;20203;-83
2023/12/10 02:22:53;;;;;;;2.50;1.50;;;6.90;90.20;;;;;;4833984;29;20203;-84
2023/12/10 02:25:31;;;;;;;2.83;2.03;;;6.90;90.20;;;;;;4834964;29;20237;-85
2023/12/10 02:28:01;;;;;;;1.83;1.73;;;6.90;90.10;;;;;;4835365;29;20225;-83
2023/12/10 02:30:30;;;;;;;1.73;0.87;;;6.90;90.00;;;;;;4829447;29;20687;-85
2023/12/10 02:32:59;;;;;;;1.43;1.37;;;6.90;90.00;;;;;;4833149;29;20731;-83
2023/12/10 02:35:28;;;;;;;3.40;2.40;;;6.80;89.80;;;;;;4830978;29;20599;-85
2023/12/10 02:37:56;;;;;;;2.53;2.33;;;6.80;89.80;;;;;;4827497;29;20207;-84
2023/12/10 02:40:25;;;;;;;3.27;1.30;;;6.80;89.80;;;;;;4823693;29;20271;-86
2023/12/10 02:42:55;;;;;;;2.57;2.10;;;6.80;89.80;;;;;;4831148;29;20211;-84
2023/12/10 02:45:24;;;;;;;6.27;2.97;;;6.70;90.00;;;;;;4830262;29;20218;-83
2023/12/10 02:47:52;;;;;;;2.83;1.87;;;6.70;90.00;;;;;;4834145;29;20210;-83
2023/12/10 02:50:21;;;;;;;3.00;2.63;;;6.70;90.00;;;;;;4833981;29;20234;-83
2023/12/10 02:52:50;;;;;;;7.57;3.83;;;6.70;90.00;;;;;;4829694;29;20203;-83
2023/12/10 02:55:18;;;;;;;3.13;2.03;;;6.70;90.10;;;;;;4836785;29;20301;-83
2023/12/10 02:57:47;;;;;;;2.47;2.20;;;6.70;90.10;;;;;;4836311;29;20233;-83
2023/12/10 03:00:17;;;;;;;0.70;0.70;;;6.70;90.00;;;;;;4830275;29;21332;-84
2023/12/10 03:02:46;;;;;;;1.17;1.07;;;6.70;90.10;;;;;;4825200;29;20214;-82
2023/12/10 03:05:14;;;;;;;5.43;2.57;;;6.60;90.10;;;;;;4837587;29;20327;-81
2023/12/10 03:07:43;;;;;;;3.20;2.80;;;6.60;90.10;;;;;;4831307;29;20246;-82
2023/12/10 03:10:12;;;;;;;2.57;2.13;;;6.60;90.10;;;;;;4828506;29;20691;-82
2023/12/10 03:12:40;;;;;;;5.60;3.27;;;6.60;90.20;;;;;;4832782;29;20579;-82
2023/12/10 03:15:10;;;;;;;1.63;1.53;;;6.60;90.10;;;;;;4832700;29;20215;-83
2023/12/10 03:17:40;;;;;;;2.17;2.03;;;6.60;90.10;;;;;;4830641;29;20202;-82
2023/12/10 03:20:12;;;;;;;6.97;2.27;;;6.60;90.10;;;;;;4826995;29;20213;-83
2023/12/10 03:22:41;;;;;;;1.97;1.83;;;6.60;90.10;;;;;;4831661;29;20202;-82
2023/12/10 03:25:09;;;;;;;4.43;2.97;;;6.60;90.20;;;;;;4834914;29;20233;-81
2023/12/10 03:27:38;;;;;;;3.30;1.83;;;6.60;90.10;;;;;;4832774;29;20246;-82
2023/12/10 03:30:08;;;;;;;1.57;1.47;;;6.60;90.10;;;;;;4841683;29;20727;-82
2023/12/10 03:32:37;;;;;;;1.13;1.13;;;6.60;90.10;;;;;;4829791;29;20658;-82
2023/12/10 03:35:07;;;;;;;5.37;3.33;;;6.50;90.10;;;;;;4830049;29;20213;-83
2023/12/10 03:37:36;;;;;;;1.80;1.70;;;6.50;90.50;;;;;;4832078;29;20573;-83
2023/12/10 03:40:05;;;;;;;7.70;3.10;;;6.50;90.10;;;;;;4835404;29;20203;-83
2023/12/10 03:42:34;;;;;;;2.47;2.27;;;6.50;90.20;;;;;;4837129;29;20650;-83
2023/12/10 03:45:06;;;;;;;3.57;2.70;;;6.50;90.20;;;;;;4831872;29;20259;-84
2023/12/10 03:47:35;;;;;;;2.57;2.37;;;6.50;90.20;;;;;;4826618;29;20720;-85
2023/12/10 03:50:04;;;;;;;1.73;1.63;;;6.50;90.20;;;;;;4829444;29;20215;-83
2023/12/10 03:52:34;;;;;;;4.17;2.00;;;6.50;90.30;;;;;;4819111;29;20285;-84
2023/12/10 03:55:03;;;;;;;1.53;1.43;;;6.50;90.30;;;;;;4832503;29;20294;-85
2023/12/10 03:57:32;;;;;;;5.27;2.43;;;6.50;90.30;;;;;;4838352;29;20210;-84
2023/12/10 04:00:00;;;;;;;4.53;2.10;;;6.40;90.30;;;;;;4833378;29;20587;-84
2023/12/10 04:02:29;;;;;;;1.77;1.67;;;6.40;90.30;;;;;;4830780;29;20214;-84
2023/12/10 04:04:58;;;;;;;3.03;1.87;;;6.50;90.40;;;;;;4829875;29;20209;-83
2023/12/10 04:07:26;;;;;;;2.63;1.87;;;6.40;90.20;;;;;;4830929;29;20228;-84
2023/12/10 04:09:57;;;;;;;1.23;1.17;;;6.40;90.20;;;;;;4830453;29;20258;-84
2023/12/10 04:12:25;;;;;;;2.63;1.80;;;6.40;90.20;;;;;;4830259;29;20671;-85
2023/12/10 04:14:54;;;;;;;2.73;1.93;;;6.40;90.10;;;;;;4836425;29;20205;-84
2023/12/10 04:17:23;;;;;;;4.30;2.33;;;6.40;90.10;;;;;;4835735;29;20230;-85
2023/12/10 04:19:51;;;;;;;1.27;1.17;;;6.40;90.10;;;;;;4831216;29;20298;-85
2023/12/10 04:22:20;;;;;;;2.50;1.97;;;6.50;90.20;;;;;;4836037;29;20570;-83
2023/12/10 04:24:49;;;;;;;1.60;1.50;;;6.40;90.10;;;;;;4837401;29;20296;-85
2023/12/10 04:27:19;;;;;;;4.33;2.60;;;6.40;90.10;;;;;;4835210;29;20240;-85
2023/12/10 04:29:48;;;;;;;4.37;3.53;;;6.30;90.10;;;;;;4839318;29;20214;-86
2023/12/10 04:32:17;;;;;;;2.60;2.40;;;6.30;90.20;;;;;;4828344;29;20205;-84
2023/12/10 04:34:45;;;;;;;0.67;0.67;;;6.40;90.20;;;;;;4838552;29;20214;-85
2023/12/10 04:37:14;;;;;;;7.37;2.90;;;6.30;90.10;;;;;;4825302;29;20346;-84
2023/12/10 04:39:43;;;;;;;2.37;1.90;;;6.40;90.10;;;;;;4833777;29;20206;-85
2023/12/10 04:42:11;;;;;;;2.43;1.63;;;6.40;90.10;;;;;;4832305;29;20242;-84
2023/12/10 04:44:43;;;;;;;1.97;1.87;;;6.40;90.10;;;;;;4824306;29;21417;-85
2023/12/10 04:47:12;;;;;;;2.23;2.03;;;6.30;90.00;;;;;;4818823;29;20598;-83
2023/12/10 04:49:41;;;;;;;1.37;1.27;;;6.30;90.00;;;;;;4822427;29;20207;-82
2023/12/10 04:52:09;;;;;;;2.07;1.50;;;6.30;90.00;;;;;;4833444;29;20212;-83
2023/12/10 04:54:38;;;;;;;1.73;1.63;;;6.30;90.00;;;;;;4834610;29;20325;-83
2023/12/10 04:57:06;;;;;;;3.83;3.00;;;6.30;90.00;;;;;;4833994;29;20237;-81
2023/12/10 04:59:35;;;;;;;3.03;2.00;;;6.30;90.00;;;;;;4827755;29;20656;-85
2023/12/10 05:02:06;;;;;;;2.90;1.20;;;6.30;90.10;;;;;;4827200;29;20208;-84
2023/12/10 05:04:35;;;;;;;4.17;3.17;;;6.30;90.10;;;;;;4821401;29;20694;-82
2023/12/10 05:07:04;;;;;;;2.17;2.00;;;6.30;90.00;;;;;;4830605;29;20237;-84
2023/12/10 05:09:33;;;;;;;3.37;2.17;;;6.30;90.00;;;;;;4831978;29;20704;-83
2023/12/10 05:12:01;;;;;;;1.50;1.03;;;6.30;90.00;;;;;;4830427;29;20309;-83
2023/12/10 05:14:30;;;;;;;2.67;2.50;;;6.30;90.00;;;;;;4828353;29;20224;-83
2023/12/10 05:16:58;;;;;;;14.23;2.17;;;6.30;90.00;;;;;;4829268;29;20221;-82
2023/12/10 05:19:29;;;;;;;2.80;2.60;;;6.30;90.00;;;;;;4834508;29;20289;-82
2023/12/10 05:21:57;;;;;;;3.00;1.67;;;6.30;89.90;;;;;;4834763;29;20205;-82
2023/12/10 05:24:27;;;;;;;1.97;1.87;;;6.30;89.80;;;;;;4837233;29;20216;-82
2023/12/10 05:26:55;;;;;;;2.27;2.03;;;6.20;89.70;;;;;;4832858;29;20241;-83
2023/12/10 05:29:24;;;;;;;1.10;1.00;;;6.20;89.70;;;;;;4830634;29;20251;-82
2023/12/10 05:31:52;;;;;;;1.73;1.63;;;6.20;89.80;;;;;;4829276;29;20299;-82
2023/12/10 05:34:21;;;;;;;3.07;2.80;;;6.20;89.80;;;;;;4827139;29;20206;-84
2023/12/10 05:36:51;;;;;;;1.30;1.05;;;6.20;89.80;;;;;;4824894;29;20871;-84
2023/12/10 05:39:20;;;;;;;1.17;1.17;;;6.20;89.80;;;;;;4834080;29;20669;-83
2023/12/10 05:41:48;;;;;;;3.47;2.73;;;6.20;89.90;;;;;;4836490;29;20206;-84
2023/12/10 05:44:17;;;;;;;2.70;2.43;;;6.20;90.30;;;;;;4825003;29;20210;-82
2023/12/10 05:46:46;;;;;;;2.33;2.17;;;6.20;90.00;;;;;;4836026;29;20214;-84
2023/12/10 05:49:14;;;;;;;4.35;2.60;;;6.20;90.00;;;;;;4831590;29;20486;-84
2023/12/10 05:51:43;;;;;;;4.27;2.20;;;6.20;90.00;;;;;;4826240;29;20714;-85
2023/12/10 05:54:13;;;;;;;1.27;1.17;;;6.20;90.10;;;;;;4826648;29;20218;-85
2023/12/10 05:56:43;;;;;;;1.63;1.53;;;6.20;90.00;;;;;;4835692;29;20210;-83
2023/12/10 05:59:11;;;;;;;2.47;2.27;;;6.20;89.90;;;;;;4831250;29;20215;-83
2023/12/10 06:01:40;;;;;;;1.67;1.57;;;6.10;89.90;;;;;;4834842;29;20218;-85
2023/12/10 06:04:09;;;;;;;1.07;1.07;;;6.20;90.00;;;;;;4835602;29;20718;-85
2023/12/10 06:06:37;;;;;;;1.27;1.03;;;6.10;89.90;;;;;;4833050;29;20711;-85
2023/12/10 06:09:06;;;;;;;2.00;1.90;;;6.10;90.00;;;;;;4838456;29;20226;-85
2023/12/10 06:11:36;;;;;;;1.93;1.83;;;6.10;90.00;;;;;;4832723;29;20213;-85
2023/12/10 06:14:05;;;;;;;1.07;0.97;;;6.20;90.00;;;;;;4839107;29;20207;-84
2023/12/10 06:16:33;;;;;;;3.80;2.97;;;6.20;90.00;;;;;;4830838;29;20708;-84
2023/12/10 06:19:02;;;;;;;19.40;2.30;;;6.20;90.00;;;;;;4833991;29;20213;-83
2023/12/10 06:21:32;;;;;;;4.43;3.73;;;6.10;90.00;;;;;;4834282;29;20249;-83
2023/12/10 06:24:00;;;;;;;1.90;1.80;;;6.20;90.00;;;;;;4842143;29;20600;-84
2023/12/10 06:26:29;;;;;;;0.73;0.73;;;6.20;90.00;;;;;;4834270;29;20692;-84
2023/12/10 06:28:59;;;;;;;5.37;2.93;;;6.10;90.00;;;;;;4839299;29;20229;-84
2023/12/10 06:31:29;;;;;;;2.50;2.30;;;6.20;90.00;;;;;;4835639;29;20224;-85
2023/12/10 06:33:57;;;;;;;2.40;1.47;;;6.20;90.00;;;;;;4833722;29;20286;-85
2023/12/10 06:36:29;;;;;;;1.63;1.43;;;6.20;90.10;;;;;;4837543;29;20234;-84
2023/12/10 06:38:59;;;;;;;8.53;2.97;;;6.20;90.00;;;;;;4846816;29;20550;-84
2023/12/10 06:41:28;;;;;;;1.70;1.60;;;6.20;90.00;;;;;;4831725;29;20207;-85
2023/12/10 06:43:58;;;;;;;6.87;3.93;;;6.20;90.00;;;;;;4832705;29;20712;-84
2023/12/10 06:46:27;;;;;;;3.63;2.17;;;6.20;90.00;;;;;;4836880;29;20210;-85
2023/12/10 06:48:56;;;;;;;1.73;1.63;;;6.20;90.00;;;;;;4828133;29;20321;-84
2023/12/10 06:51:25;;;;;;;2.27;2.03;;;6.30;90.00;;;;;;4835528;29;20216;-84
2023/12/10 06:53:53;;;;;;;1.80;1.70;;;6.30;90.00;;;;;;4839833;29;20249;-84
2023/12/10 06:56:22;;;;;;;2.13;2.00;;;6.30;90.00;;;;;;4833487;29;20225;-83
2023/12/10 06:58:50;;;;;;;2.95;2.17;;;6.30;90.00;;;;;;4843376;29;21053;-85
2023/12/10 07:01:20;;;;;;;1.93;1.53;;;6.30;90.40;;;;;;4840312;29;20209;-84
2023/12/10 07:03:49;;;;;;;4.53;2.53;;;6.40;90.20;;;;;;4832753;29;20282;-83
2023/12/10 07:06:18;;;;;;;2.77;2.03;;;6.40;90.10;;;;;;4838138;29;20214;-83
2023/12/10 07:08:46;;;;;;;3.93;3.33;;;6.50;90.10;;;;;;4839049;29;20385;-83
2023/12/10 07:11:15;;;;;;;7.57;3.83;;;6.50;90.00;;;;;;4839972;29;20210;-80
2023/12/10 07:13:44;;;;;;;4.30;3.00;;;6.50;90.00;;;;;;4829150;29;20639;-81
2023/12/10 07:16:12;;;;;;;2.70;2.53;;;6.50;90.00;;;;;;4827264;29;20210;-80
2023/12/10 07:18:42;;;;;;;3.67;2.83;;;6.50;89.80;;;;;;4835902;29;20298;-82
2023/12/10 07:21:12;;;;;;;2.80;2.30;;;6.50;89.80;;;;;;4835250;29;20237;-83
2023/12/10 07:23:41;;;;;;;3.77;1.53;;;6.60;89.90;;;;;;4833309;29;20207;-83
2023/12/10 07:28:56;;;;;;;4.83;3.83;;;6.60;89.80;;;;;;4835253;29;20252;-83
2023/12/10 07:31:24;;;;;;;3.50;2.77;;;6.60;89.50;;;;;;4832706;29;20226;-84
2023/12/10 07:45:25;;;;;;;2.20;1.03;;;6.60;88.80;;;;;;4827431;29;20508;-83
2023/12/10 07:47:56;;;;;;;7.17;3.90;;;6.60;88.90;;;;;;4832487;29;20210;-84
2023/12/10 07:50:27;;;;;;;1.97;1.67;;;6.60;88.80;;;;;;4829375;29;20206;-87
2023/12/10 07:52:56;;;;;;;3.00;2.30;;;6.60;88.90;;;;;;4838659;29;20207;-83
2023/12/10 07:55:24;;;;;;;2.40;2.20;;;6.60;89.00;;;;;;4828640;29;20231;-83
2023/12/10 07:57:55;;;;;;;2.30;2.13;;;6.70;89.00;;;;;;4833182;29;20445;-84
2023/12/10 08:00:38;;;;;;;1.37;1.27;;;6.70;89.40;;;;;;4828104;29;20712;-85
2023/12/10 08:03:07;;;;;;;2.93;2.67;;;6.70;89.40;;;;;;4831595;29;20290;-85
2023/12/10 08:05:37;;;;;;;1.87;1.77;;;6.80;89.10;;;;;;4830401;29;20225;-85
2023/12/10 08:08:06;;;;;;;2.25;2.05;;;6.80;89.20;;;;;;4828082;29;20456;-86
2023/12/10 08:10:35;;;;;;;3.17;2.87;;;6.80;89.10;;;;;;4836891;29;20209;-85
2023/12/10 08:13:05;;;;;;;2.43;1.67;;;6.80;88.70;;;;;;4827749;29;20550;-84
2023/12/10 08:15:34;;;;;;;2.90;2.43;;;6.80;88.30;;;;;;4825865;29;20219;-87
2023/12/10 08:18:03;;;;;;;0.83;0.83;;;6.80;88.20;;;;;;4828889;29;20199;-83
2023/12/10 08:20:31;;;;;;;2.43;1.67;;;6.80;88.20;;;;;;4831460;29;20199;-84
2023/12/10 08:23:02;;;;;;;3.70;3.40;;;6.80;88.30;;;;;;4828758;29;20290;-84
2023/12/10 08:25:31;;;;;;;2.67;1.63;;;6.90;88.10;;;;;;4833628;29;20213;-82
2023/12/10 08:28:00;;;;;;;2.17;2.03;;;6.90;88.00;;;;;;4831642;29;20203;-84
2023/12/10 08:30:28;;;;;;;2.73;1.57;;;6.90;87.90;;;;;;4831098;29;20332;-83
2023/12/10 08:32:57;;;;;;;3.33;2.20;;;6.90;88.00;;;;;;4829536;29;20207;-84
2023/12/10 08:35:26;;;;;;;2.57;2.37;;;6.90;87.30;;;;;;4836444;29;20257;-83
2023/12/10 08:37:54;;;;;;;1.70;1.57;;;6.90;87.30;;;;;;4830133;29;20633;-84
2023/12/10 08:40:24;;;;;;;4.43;3.20;;;6.90;87.30;;;;;;4832044;29;20202;-83
2023/12/10 08:42:53;;;;;;;2.20;1.73;;;6.90;87.40;;;;;;4830171;29;20232;-84
2023/12/10 08:45:22;;;;;;;7.20;3.13;;;6.90;87.20;;;;;;4827253;29;20202;-83
2023/12/10 08:47:51;;;;;;;2.43;2.23;;;6.90;87.30;;;;;;4833794;29;20198;-83
2023/12/10 08:50:20;;;;;;;1.83;1.63;;;6.90;87.20;;;;;;4835748;29;20600;-85
2023/12/10 08:52:48;;;;;;;6.73;4.10;;;6.90;87.00;;;;;;4832386;29;20210;-84
2023/12/10 08:55:17;;;;;;;2.10;1.90;;;6.90;87.20;;;;;;4828615;29;20202;-85
2023/12/10 08:57:47;;;;;;;1.37;1.33;;;6.90;87.30;;;;;;4829169;29;20303;-85
2023/12/10 09:00:17;;;;;;;3.13;1.97;;;6.90;87.50;;;;;;4829396;29;20210;-84
2023/12/10 09:02:46;;;;;;;2.40;2.17;;;6.90;87.50;;;;;;4832187;29;20749;-85
2023/12/10 09:05:14;;;;;;;3.90;3.07;;;6.90;87.00;;;;;;4834590;29;20245;-84
2023/12/10 09:07:43;;;;;;;2.10;1.80;;;6.90;87.20;;;;;;4834946;29;20206;-83
2023/12/10 09:10:11;;;;;;;4.93;2.43;;;6.90;87.30;;;;;;4826740;29;20235;-82
2023/12/10 09:12:41;;;;;;;2.27;2.07;;;7.00;87.30;;;;;;4821313;29;20217;-82
2023/12/10 09:15:11;;;;;;;3.37;3.00;;;7.00;87.20;;;;;;4835766;29;20225;-83
2023/12/10 09:17:40;;;;;;;2.10;1.70;;;7.00;86.80;;;;;;4832304;29;20203;-84
2023/12/10 09:20:09;;;;;;;2.53;2.33;;;7.00;86.90;;;;;;4827963;29;20293;-84
2023/12/10 09:22:38;;;;;;;2.50;2.00;;;7.00;86.90;;;;;;4827117;29;20202;-83
2023/12/10 09:25:07;;;;;;;4.83;2.37;;;7.00;86.70;;;;;;4838222;29;20263;-82
2023/12/10 09:27:36;;;;;;;2.77;2.57;;;7.00;86.70;;;;;;4838494;29;20233;-82
2023/12/10 09:30:05;;;;;;;3.23;1.83;;;7.00;86.70;;;;;;4840596;29;20231;-84
2023/12/10 09:32:36;;;;;;;1.83;1.53;;;6.90;86.30;;;;;;4837755;29;20234;-81
2023/12/10 09:35:05;;;;;;;4.82;2.25;;;6.90;86.50;;;;;;4839076;29;20530;-83
2023/12/10 09:37:34;;;;;;;3.40;2.53;;;6.90;86.90;;;;;;4833116;29;20207;-83
2023/12/10 09:40:04;;;;;;;5.83;3.23;;;6.90;86.90;;;;;;4829652;29;20729;-82
2023/12/10 09:42:34;;;;;;;4.10;2.20;;;6.90;86.60;;;;;;4828634;29;20219;-83
2023/12/10 09:45:03;;;;;;;1.07;1.07;;;6.90;86.70;;;;;;4837741;29;20202;-83
2023/12/10 09:47:33;;;;;;;2.10;2.00;;;7.00;86.90;;;;;;4832692;29;20211;-83
2023/12/10 09:50:04;;;;;;;2.57;2.37;;;7.10;87.10;;;;;;4829057;29;20226;-85
2023/12/10 09:52:32;;;;;;;3.83;2.03;;;7.10;86.40;;;;;;4833913;29;20221;-84
2023/12/10 09:55:01;;;;;;;1.17;1.10;;;7.10;86.30;;;;;;4833739;29;20631;-87
2023/12/10 09:57:30;;;;;;;3.13;2.67;;;7.10;86.30;;;;;;4840596;29;20704;-87
2023/12/10 09:59:59;;;;;;;1.73;1.63;;;7.10;86.10;;;;;;4835109;29;20247;-86
2023/12/10 10:02:32;;;;;;;3.60;3.27;;;7.20;86.10;;;;;;4835559;29;20207;-86
2023/12/10 10:05:07;;;;;;;3.30;2.93;;;7.20;86.10;;;;;;4841635;29;20260;-82
2023/12/10 10:07:37;;;;;;;1.83;1.73;;;7.20;86.10;;;;;;4838674;29;20213;-82
2023/12/10 10:10:10;;;;;;;3.90;3.13;;;7.10;85.80;;;;;;4835223;29;20246;-82
2023/12/10 10:12:39;;;;;;;2.67;2.20;;;7.10;85.80;;;;;;4832619;29;20233;-81
2023/12/10 10:15:09;;;;;;;2.30;1.43;;;7.10;85.60;;;;;;4831623;29;20214;-81
2023/12/10 10:17:38;;;;;;;1.87;1.77;;;7.10;85.80;;;;;;4827615;29;20210;-81
2023/12/10 10:20:10;;;;;;;3.77;2.40;;;7.10;85.80;;;;;;4835749;29;20233;-81
2023/12/10 10:22:38;;;;;;;1.03;1.00;;;7.10;86.00;;;;;;4835278;29;20218;-82
2023/12/10 10:25:08;;;;;;;3.83;2.30;;;7.10;86.00;;;;;;4837145;29;20210;-82
2023/12/10 10:27:37;;;;;;;1.13;1.07;;;7.10;85.80;;;;;;4841399;29;20283;-81
2023/12/10 10:30:06;;;;;;;1.93;1.83;;;7.20;86.00;;;;;;4832149;29;20240;-81
2023/12/10 10:32:35;;;;;;;2.80;2.43;;;7.10;85.90;;;;;;4824919;29;20210;-83
2023/12/10 10:35:06;;;;;;;2.65;2.20;;;7.10;86.00;;;;;;4829540;29;20471;-83
2023/12/10 10:38:04;;;;;;;1.07;1.07;;;7.10;86.10;;;;;;4836859;29;20209;-82
2023/12/10 10:40:49;;;;;;;2.40;2.17;;;7.10;86.30;;;;;;4834138;29;20233;-83
2023/12/10 10:43:18;;;;;;;1.90;1.70;;;7.10;85.80;;;;;;4833820;29;20548;-83
2023/12/10 10:45:46;;;;;;;4.80;4.03;;;7.10;85.90;;;;;;4834044;29;20298;-85
2023/12/10 10:48:15;;;;;;;0.87;0.87;;;7.10;85.90;;;;;;4832623;29;20677;-85
2023/12/10 10:50:45;;;;;;;2.03;1.93;;;7.10;86.00;;;;;;4836521;29;20688;-85
2023/12/10 10:53:23;;;;;;;5.40;2.97;;;7.10;86.00;;;;;;4831057;29;20661;-87
2023/12/10 10:55:53;;;;;;;1.90;1.40;;;7.10;86.00;;;;;;4839730;29;20574;-86
2023/12/10 10:58:27;;;;;;;1.97;1.87;;;7.10;86.00;;;;;;4830303;29;20214;-86
2023/12/10 11:00:57;;;;;;;4.70;3.30;;;7.20;85.90;;;;;;4826304;29;20565;-86
2023/12/10 11:03:27;;;;;;;4.27;1.83;;;7.10;85.70;;;;;;4834069;29;20207;-85
2023/12/10 11:05:57;;;;;;;4.37;3.03;;;7.10;85.70;;;;;;4833637;29;20293;-85
2023/12/10 11:08:28;;;;;;;2.93;1.90;;;7.10;85.70;;;;;;4834548;29;20329;-84
2023/12/10 11:11:01;;;;;;;2.70;1.75;;;7.20;85.80;;;;;;4838512;29;20472;-85
2023/12/10 11:13:54;;;;;;;4.43;2.33;;;7.20;86.10;;;;;;4839252;29;20206;-85
2023/12/10 11:16:23;;;;;;;2.23;1.67;;;7.20;86.10;;;;;;4806552;29;20212;-85
2023/12/10 11:18:53;;;;;;;4.27;2.30;;;7.30;86.20;;;;;;4829219;29;20567;-85
2023/12/10 11:21:22;;;;;;;3.10;2.37;;;7.30;86.10;;;;;;4825821;29;20776;-84
2023/12/10 11:23:53;;;;;;;2.07;1.97;;;7.30;85.90;;;;;;4834377;29;20194;-86
2023/12/10 11:26:23;;;;;;;2.10;2.00;;;7.30;85.60;;;;;;4831995;29;20245;-85
2023/12/10 11:28:52;;;;;;;3.97;2.93;;;7.30;85.50;;;;;;4829310;29;20285;-85
2023/12/10 11:31:20;;;;;;;5.60;3.43;;;7.30;85.70;;;;;;4833296;29;20258;-86
2023/12/10 11:33:51;;;;;;;3.53;2.70;;;7.30;85.90;;;;;;4836101;29;20368;-87
2023/12/10 11:36:20;;;;;;;9.13;2.53;;;7.30;85.80;;;;;;4832664;29;20211;-85
2023/12/10 11:39:05;;;;;;;1.90;1.80;;;7.30;85.80;;;;;;4823987;29;20210;-85
2023/12/10 11:41:38;;;;;;;2.70;1.83;;;7.30;85.80;;;;;;4832911;29;20226;-84
2023/12/10 11:44:22;;;;;;;6.60;2.77;;;7.30;85.90;;;;;;4834966;29;20685;-84
2023/12/10 11:46:51;;;;;;;2.00;1.90;;;7.30;85.90;;;;;;4831546;29;20659;-84
2023/12/10 11:49:24;;;;;;;4.43;1.90;;;7.30;86.00;;;;;;4830063;29;20211;-84
2023/12/10 11:51:53;;;;;;;3.17;2.87;;;7.30;85.90;;;;;;4835910;29;20226;-84
2023/12/10 11:54:23;;;;;;;4.67;2.20;;;7.30;85.80;;;;;;4827920;29;20225;-84
2023/12/10 11:56:53;;;;;;;4.33;3.67;;;7.30;85.50;;;;;;4824460;29;20210;-84
2023/12/10 11:59:21;;;;;;;1.13;1.07;;;7.30;85.30;;;;;;4825019;29;20322;-84
2023/12/10 12:01:52;;;;;;;6.40;4.57;;;7.30;85.40;;;;;;4827998;29;20214;-83
2023/12/10 12:04:20;;;;;;;3.17;2.70;;;7.30;85.50;;;;;;4824199;29;20214;-84
2023/12/10 12:06:49;;;;;;;6.97;2.23;;;7.30;85.60;;;;;;4823518;29;20618;-84
2023/12/10 12:09:20;;;;;;;5.13;2.43;;;7.30;85.60;;;;;;4823026;29;20206;-84
2023/12/10 12:11:52;;;;;;;9.40;4.93;;;7.30;85.60;;;;;;4824536;29;20387;-84
2023/12/10 12:14:21;;;;;;;3.80;3.40;;;7.30;85.50;;;;;;4823138;29;20214;-84
2023/12/10 12:16:50;;;;;;;5.50;4.10;;;7.30;85.50;;;;;;4822100;29;20238;-84
2023/12/10 12:19:28;;;;;;;2.07;1.90;;;7.30;85.40;;;;;;4828526;29;20654;-84
2023/12/10 12:21:58;;;;;;;3.00;2.80;;;7.30;85.40;;;;;;4825764;29;20573;-82
2023/12/10 12:24:27;;;;;;;1.13;1.13;;;7.30;85.50;;;;;;4824983;29;20293;-83
2023/12/10 12:26:57;;;;;;;5.37;4.10;;;7.30;85.50;;;;;;4827754;29;20284;-81
2023/12/10 12:29:26;;;;;;;2.63;2.40;;;7.30;85.50;;;;;;4825155;29;20285;-83
2023/12/10 12:31:55;;;;;;;3.30;2.10;;;7.20;85.50;;;;;;4832489;29;20724;-83
2023/12/10 12:34:43;;;;;;;5.47;2.50;;;7.20;85.50;;;;;;4828890;29;20215;-83
2023/12/10 12:37:12;;;;;;;1.77;1.67;;;7.20;85.50;;;;;;4834938;29;20297;-84
2023/12/10 12:39:41;;;;;;;3.50;2.13;;;7.20;85.40;;;;;;4826392;29;20218;-86
2023/12/10 12:42:14;;;;;;;1.93;1.83;;;7.20;85.50;;;;;;4836080;29;20210;-86
2023/12/10 12:44:42;;;;;;;2.20;2.00;;;7.20;85.70;;;;;;4834633;29;20688;-87
2023/12/10 12:47:11;;;;;;;4.93;2.27;;;7.20;85.70;;;;;;4834263;29;20214;-88
2023/12/10 12:49:42;;;;;;;4.37;2.60;;;7.20;85.30;;;;;;4833847;29;20567;-86
2023/12/10 12:52:11;;;;;;;2.53;2.33;;;7.20;85.40;;;;;;4833674;29;20869;-86
2023/12/10 12:54:40;;;;;;;4.97;2.80;;;7.20;85.40;;;;;;4837986;29;20250;-86
2023/12/10 12:57:08;;;;;;;2.63;2.43;;;7.20;85.20;;;;;;4836661;29;20210;-87
2023/12/10 12:59:41;;;;;;;8.67;2.83;;;7.20;85.00;;;;;;4841882;29;20266;-85
2023/12/10 13:02:10;;;;;;;16.63;4.43;;;7.20;85.10;;;;;;4836069;29;20935;-86
2023/12/10 13:04:47;;;;;;;2.03;1.83;;;7.20;85.30;;;;;;4835709;29;20675;-88
2023/12/10 13:07:16;;;;;;;2.23;2.13;;;7.30;85.30;;;;;;4826214;29;20301;-86
2023/12/10 13:09:45;;;;;;;10.23;2.97;;;7.30;85.50;;;;;;4830513;29;20699;-86
2023/12/10 13:12:28;;;;;;;2.40;1.77;;;7.30;85.20;;;;;;4831583;29;20462;-86
2023/12/10 13:15:12;;;;;;;3.10;2.30;;;7.40;85.30;;;;;;4837049;29;20202;-86
2023/12/10 13:17:41;;;;;;;2.07;1.90;;;7.40;85.30;;;;;;4833286;29;20297;-86
2023/12/10 13:20:10;;;;;;;1.73;1.63;;;7.40;85.30;;;;;;4832121;29;20284;-87
2023/12/10 13:22:39;;;;;;;2.77;2.33;;;7.50;85.30;;;;;;4838922;29;20733;-87
2023/12/10 13:25:08;;;;;;;5.07;2.30;;;7.50;85.10;;;;;;4838736;29;20744;-87
2023/12/10 13:27:37;;;;;;;4.30;2.97;;;7.50;84.90;;;;;;4836855;29;20242;-87
2023/12/10 13:30:07;;;;;;;3.03;2.27;;;7.50;84.70;;;;;;4838861;29;20210;-87
2023/12/10 13:32:39;;;;;;;1.50;1.40;;;7.50;84.70;;;;;;4837857;29;20262;-87
2023/12/10 13:35:08;;;;;;;1.87;1.70;;;7.40;84.70;;;;;;4837281;29;20321;-87
2023/12/10 13:37:37;;;;;;;4.72;2.58;;;7.40;84.80;;;;;;4839483;29;20444;-87
2023/12/10 13:40:09;;;;;;;2.60;2.00;;;7.40;85.60;;;;;;4838436;29;20222;-88